Time;durP1;ratioP1;P1;durP2;ratioP2;P2;SDS_P1;SDS_P2;PMS_P1;PMS_P2;Temp;Humidity;BMP_temperature;BMP_pressure;BME280_temperature;BME280_humidity;BME280_pressure;Samples;Min_cycle;Max_cycle;Signal;HPM_P1;HPM_P2
2022/04/06 00:00:53;;;;;;;10.48;9.38;;;;;;;;;;762024;78;26322;-69
2022/04/06 00:05:42;;;;;;;11.05;9.40;;;;;;;;;;730859;81;26269;-68
2022/04/06 00:06:45;;;;;;;11.05;9.88;;;;;;;;;;722211;82;26248;-69
2022/04/06 00:07:49;;;;;;;12.82;10.05;;;;;;;;;;722233;80;26252;-69
2022/04/06 00:08:52;;;;;;;11.50;10.25;;;;;;;;;;720746;82;26304;-71
2022/04/06 00:17:12;;;;;;;13.00;10.68;;;;;;;;;;775488;76;26628;-69
2022/04/06 00:18:14;;;;;;;15.20;11.22;;;;;;;;;;775433;76;26678;-68
2022/04/06 00:19:17;;;;;;;14.07;11.65;;;;;;;;;;775665;76;26210;-68
2022/04/06 00:20:20;;;;;;;12.82;11.12;;;;;;;;;;775766;76;26639;-68
2022/04/06 00:25:17;;;;;;;18.10;11.97;;;;;;;;;;767302;77;26180;-68
2022/04/06 00:26:25;;;;;;;13.85;12.13;;;;;;;;;;781329;76;26238;-68
2022/04/06 00:27:30;;;;;;;14.93;12.68;;;;;;;;;;782682;76;26727;-70
2022/04/06 00:28:34;;;;;;;18.10;13.15;;;;;;;;;;770441;77;26681;-68
2022/04/06 00:29:39;;;;;;;16.10;13.70;;;;;;;;;;767887;77;26709;-69
2022/04/06 00:30:45;;;;;;;17.45;12.55;;;;;;;;;;781691;76;26224;-68
2022/04/06 00:34:05;;;;;;;14.18;12.05;;;;;;;;;;766665;77;26697;-68
2022/04/06 00:36:28;;;;;;;14.75;12.70;;;;;;;;;;766098;77;26345;-68
2022/04/06 00:37:32;;;;;;;15.30;11.97;;;;;;;;;;766123;77;26256;-69
2022/04/06 00:38:36;;;;;;;16.80;12.50;;;;;;;;;;766089;77;26674;-68
2022/04/06 00:39:39;;;;;;;18.62;12.20;;;;;;;;;;766132;77;26325;-68
2022/04/06 00:40:44;;;;;;;13.83;12.33;;;;;;;;;;766660;76;26348;-69
2022/04/06 00:43:41;;;;;;;16.57;12.25;;;;;;;;;;768266;77;26746;-69
2022/04/06 00:44:47;;;;;;;17.45;13.68;;;;;;;;;;782132;76;26715;-70
2022/04/06 00:45:51;;;;;;;16.77;13.93;;;;;;;;;;782215;76;26307;-69
2022/04/06 00:46:54;;;;;;;15.20;13.60;;;;;;;;;;782229;76;26679;-68
2022/04/06 00:47:58;;;;;;;15.58;12.90;;;;;;;;;;782436;76;26312;-69
2022/04/06 00:49:03;;;;;;;18.42;13.85;;;;;;;;;;782212;76;26256;-68
2022/04/06 00:50:07;;;;;;;16.82;12.65;;;;;;;;;;782160;76;26298;-70
2022/04/06 00:54:47;;;;;;;13.62;11.03;;;;;;;;;;782650;76;26162;-69
2022/04/06 00:55:50;;;;;;;14.68;12.93;;;;;;;;;;762814;78;26238;-68
2022/04/06 00:56:54;;;;;;;17.40;12.85;;;;;;;;;;783087;75;26238;-69
2022/04/06 01:04:09;;;;;;;15.43;12.00;;;;;;;;;;762576;77;26214;-68
2022/04/06 01:05:14;;;;;;;13.98;11.85;;;;;;;;;;786076;75;26299;-69
2022/04/06 01:06:21;;;;;;;13.88;11.88;;;;;;;;;;786083;75;26283;-68
2022/04/06 01:07:24;;;;;;;15.55;11.78;;;;;;;;;;774913;76;26691;-68
2022/04/06 01:08:29;;;;;;;15.40;11.93;;;;;;;;;;775640;75;26248;-68
2022/04/06 01:09:31;;;;;;;14.28;12.05;;;;;;;;;;785947;75;26240;-68
2022/04/06 01:10:34;;;;;;;14.75;12.03;;;;;;;;;;786163;75;26237;-69
2022/04/06 01:14:03;;;;;;;13.80;11.88;;;;;;;;;;798724;74;26798;-68
2022/04/06 01:15:07;;;;;;;16.07;12.15;;;;;;;;;;798519;74;26236;-69
2022/04/06 01:16:11;;;;;;;15.48;12.50;;;;;;;;;;798498;74;26220;-69
2022/04/06 01:17:14;;;;;;;14.43;11.85;;;;;;;;;;798618;74;26672;-68
2022/04/06 01:18:17;;;;;;;15.25;12.58;;;;;;;;;;798530;74;26227;-69
2022/04/06 01:19:20;;;;;;;15.55;12.65;;;;;;;;;;798560;74;26215;-69
2022/04/06 01:20:24;;;;;;;19.60;12.37;;;;;;;;;;798508;74;26678;-69
2022/04/06 01:24:57;;;;;;;15.58;11.95;;;;;;;;;;786536;75;26146;-69
2022/04/06 01:26:01;;;;;;;15.25;12.28;;;;;;;;;;786470;75;26310;-68
2022/04/06 01:27:05;;;;;;;15.20;12.53;;;;;;;;;;786514;75;26664;-68
2022/04/06 01:28:10;;;;;;;14.65;12.03;;;;;;;;;;786565;75;26347;-68
2022/04/06 01:29:12;;;;;;;14.73;12.05;;;;;;;;;;786512;75;26293;-67
2022/04/06 01:30:15;;;;;;;16.42;11.95;;;;;;;;;;786444;75;26300;-68
2022/04/06 01:35:02;;;;;;;15.50;11.45;;;;;;;;;;761245;78;26247;-68
2022/04/06 01:36:07;;;;;;;14.55;12.10;;;;;;;;;;761270;78;26250;-69
2022/04/06 01:37:12;;;;;;;15.53;12.03;;;;;;;;;;760374;78;26774;-69
2022/04/06 01:38:16;;;;;;;13.32;11.53;;;;;;;;;;760303;78;26357;-68
2022/04/06 01:39:19;;;;;;;13.08;11.65;;;;;;;;;;760334;78;26250;-69
2022/04/06 01:40:24;;;;;;;13.20;11.80;;;;;;;;;;760323;78;26238;-68
2022/04/06 01:53:55;;;;;;;20.10;14.13;;;;;;;;;;761984;78;26298;-68
2022/04/06 01:55:07;;;;;;;22.80;17.75;;;;;;;;;;761844;78;26349;-68
2022/04/06 01:56:12;;;;;;;23.38;15.78;;;;;;;;;;761767;78;26309;-68
2022/04/06 01:57:18;;;;;;;20.82;15.23;;;;;;;10.39;100.00;161519.38;761814;78;26686;-68
2022/04/06 01:58:23;;;;;;;15.70;12.70;;;;;;;;;;761766;78;26698;-69
2022/04/06 01:59:27;;;;;;;17.77;10.82;;;;;;;;;;761900;78;26276;-68
2022/04/06 02:00:31;;;;;;;11.55;9.98;;;;;;;;;;761864;78;26318;-69
2022/04/06 02:03:34;;;;;;;12.63;10.63;;;;;;;;;;775878;76;26167;-69
2022/04/06 02:04:38;;;;;;;11.43;10.03;;;;;;;;;;776061;76;26762;-69
2022/04/06 02:05:44;;;;;;;15.93;9.80;;;;;;;;;;775723;76;26726;-68
2022/04/06 02:06:48;;;;;;;11.83;9.93;;;;;;;;;;775494;76;26223;-68
2022/04/06 02:07:53;;;;;;;13.40;9.75;;;;;;;;;;775605;76;26230;-69
2022/04/06 02:08:58;;;;;;;13.50;9.55;;;;;;;;;;777036;76;26211;-69
2022/04/06 02:10:02;;;;;;;11.78;10.28;;;;;;;;;;776722;76;26321;-69
2022/04/06 02:13:04;;;;;;;13.28;9.05;;;;;;;;;;762827;78;26287;-69
2022/04/06 02:14:09;;;;;;;11.97;9.45;;;;;;;;;;762729;78;26741;-68
2022/04/06 02:15:13;;;;;;;11.40;9.18;;;;;;;;;;763499;78;26230;-68
2022/04/06 02:16:16;;;;;;;11.55;9.68;;;;;;;;;;763541;78;26254;-71
2022/04/06 02:17:21;;;;;;;11.35;9.70;;;;;;;;;;763049;78;26300;-70
2022/04/06 02:18:23;;;;;;;11.73;9.58;;;;;;;;;;761923;78;26242;-69
2022/04/06 02:19:27;;;;;;;14.40;10.30;;;;;;;;;;761900;77;26244;-69
2022/04/06 02:24:00;;;;;;;10.32;8.43;;;;;;;;;;781110;76;26624;-67
2022/04/06 02:25:04;;;;;;;13.00;9.50;;;;;;;;;;781095;76;26307;-68
2022/04/06 02:26:09;;;;;;;11.68;9.60;;;;;;;;;;781055;76;26230;-68
2022/04/06 02:27:12;;;;;;;12.60;9.30;;;;;;;;;;781056;76;26235;-69
2022/04/06 02:28:17;;;;;;;11.28;8.75;;;;;;;;;;781030;76;26377;-69
2022/04/06 02:29:21;;;;;;;9.40;8.35;;;;;;;;;;781065;76;26230;-68
2022/04/06 02:35:38;;;;;;;11.10;8.55;;;;;;;;;;750479;79;26181;-69
2022/04/06 02:36:43;;;;;;;9.75;8.10;;;;;;;;;;750317;79;26237;-69
2022/04/06 02:37:47;;;;;;;9.45;8.43;;;;;;;;;;749512;79;26317;-68
2022/04/06 02:38:52;;;;;;;11.00;8.68;;;;;;;;;;749364;79;26258;-69
2022/04/06 02:39:54;;;;;;;11.93;9.00;;;;;;;;;;749468;79;26317;-69
2022/04/06 02:44:27;;;;;;;9.35;7.90;;;;;;;;;;746314;79;26252;-71
2022/04/06 02:45:31;;;;;;;10.08;8.40;;;;;;;;;;746187;79;26255;-69
2022/04/06 02:46:34;;;;;;;10.80;8.70;;;;;;;;;;744998;79;26270;-70
2022/04/06 02:47:38;;;;;;;10.55;8.60;;;;;;;;;;744758;79;26719;-69
2022/04/06 02:48:42;;;;;;;10.13;9.13;;;;;;;;;;745061;79;26748;-69
2022/04/06 02:49:45;;;;;;;11.85;8.45;;;;;;;;;;744767;79;26341;-69
2022/04/06 02:54:19;;;;;;;10.88;8.63;;;;;;;;;;776650;76;26702;-69
2022/04/06 02:55:25;;;;;;;11.57;9.55;;;;;;;;;;775915;76;26322;-69
2022/04/06 02:56:28;;;;;;;10.68;8.15;;;;;;;;;;776199;76;26299;-68
2022/04/06 02:57:32;;;;;;;9.60;8.60;;;;;;;;;;775802;76;26706;-69
2022/04/06 02:58:35;;;;;;;9.05;7.70;;;;;;;;;;775821;76;26705;-70
2022/04/06 02:59:40;;;;;;;8.48;7.53;;;;;;;;;;775899;76;26371;-69
2022/04/06 03:04:37;;;;;;;11.45;8.88;;;;;;;;;;804299;74;26166;-67
2022/04/06 03:05:40;;;;;;;14.87;9.70;;;;;;;;;;804497;74;26256;-70
2022/04/06 03:06:43;;;;;;;14.83;10.10;;;;;;;;;;804578;74;26277;-71
2022/04/06 03:07:48;;;;;;;12.25;9.78;;;;;;;;;;804149;74;26657;-69
2022/04/06 03:08:53;;;;;;;10.98;9.48;;;;;;;;;;803831;74;26228;-68
2022/04/06 03:09:57;;;;;;;12.70;9.78;;;;;;;;;;797086;74;26232;-68
2022/04/06 03:13:11;;;;;;;12.45;8.95;;;;;;;;;;763656;77;26777;-69
2022/04/06 03:14:15;;;;;;;12.35;9.00;;;;;;;;;;764703;77;24277;-69
2022/04/06 03:15:20;;;;;;;13.93;10.10;;;;;;;;;;764389;77;26691;-69
2022/04/06 03:16:23;;;;;;;10.63;9.23;;;;;;;;;;763569;77;26260;-68
2022/04/06 03:17:30;;;;;;;12.98;9.50;;;;;;;;;;763414;77;26268;-69
2022/04/06 03:18:36;;;;;;;13.68;9.80;;;;;;;;;;763436;77;26262;-68
2022/04/06 03:27:57;;;;;;;10.38;8.83;;;;;;;;;;744056;80;26195;-69
2022/04/06 03:29:00;;;;;;;10.25;8.20;;;;;;;;;;743504;80;26270;-69
2022/04/06 03:33:57;;;;;;;9.60;8.05;;;;;;;;;;750979;78;26719;-68
2022/04/06 03:35:01;;;;;;;8.68;7.55;;;;;;;;;;750807;79;26260;-68
2022/04/06 03:36:06;;;;;;;9.83;7.55;;;;;;;;;;750742;79;26322;-69
2022/04/06 03:37:08;;;;;;;9.03;8.13;;;;;;;;;;734256;80;26257;-69
2022/04/06 03:38:11;;;;;;;10.65;8.18;;;;;;;;;;738042;80;26749;-70
2022/04/06 03:39:16;;;;;;;9.18;7.97;;;;;;;;;;738018;80;26268;-69
2022/04/06 03:44:13;;;;;;;9.83;7.80;;;;;;;;;;779983;75;26262;-68
2022/04/06 03:45:18;;;;;;;9.35;8.45;;;;;;;;;;780241;76;26204;-69
2022/04/06 03:46:22;;;;;;;13.10;8.70;;;;;;;;;;781038;76;26208;-69
2022/04/06 03:47:32;;;;;;;9.53;8.55;;;;;;;;;;769236;77;26367;-68
2022/04/06 03:48:36;;;;;;;9.45;8.55;;;;;;;;;;770674;76;26282;-70
2022/04/06 03:49:39;;;;;;;10.58;8.50;;;;;;;;;;779882;76;26209;-68
2022/04/06 03:52:42;;;;;;;12.75;9.00;;;;;;;;;;762100;77;26331;-69
2022/04/06 03:53:46;;;;;;;9.38;8.40;;;;;;;;;;762422;78;26248;-72
2022/04/06 03:54:50;;;;;;;11.85;8.60;;;;;;;;;;761978;78;26665;-69
2022/04/06 03:55:54;;;;;;;11.40;9.00;;;;;;;;;;762021;78;26297;-68
2022/04/06 03:56:57;;;;;;;9.63;8.63;;;;;;;;;;762213;78;26313;-69
2022/04/06 03:58:02;;;;;;;11.05;8.95;;;;;;;;;;761685;78;24674;-69
2022/04/06 03:59:06;;;;;;;10.28;8.80;;;;;;;;;;761666;78;26249;-69
2022/04/06 04:04:07;;;;;;;11.70;9.63;;;;;;;;;;788432;75;26299;-69
2022/04/06 04:05:11;;;;;;;15.28;11.00;;;;;;;;;;788313;75;26215;-68
2022/04/06 04:06:16;;;;;;;11.53;10.25;;;;;;;;;;788022;75;26228;-70
2022/04/06 04:14:34;;;;;;;12.13;9.00;;;;;;;;;;782438;76;26239;-71
2022/04/06 04:15:38;;;;;;;13.72;9.50;;;;;;;;;;782420;76;26403;-70
2022/04/06 04:16:44;;;;;;;11.85;9.90;;;;;;;;;;782790;76;26349;-74
2022/04/06 04:17:47;;;;;;;12.35;10.03;;;;;;;;;;782799;76;26325;-71
2022/04/06 04:18:50;;;;;;;12.23;9.73;;;;;;;;;;762987;78;26684;-72
2022/04/06 04:23:45;;;;;;;14.75;10.30;;;;;;;;;;780098;76;26202;-70
2022/04/06 04:24:47;;;;;;;13.78;10.60;;;;;;;;;;780060;76;26205;-70
2022/04/06 04:25:52;;;;;;;14.55;10.43;;;;;;;;;;780017;76;26704;-70
2022/04/06 04:26:56;;;;;;;12.82;9.50;;;;;;;;;;780084;76;26742;-70
2022/04/06 04:28:00;;;;;;;11.63;9.70;;;;;;;;;;780047;76;26280;-71
2022/04/06 04:29:04;;;;;;;14.15;9.83;;;;;;;;;;780106;76;26214;-71
2022/04/06 04:33:37;;;;;;;14.73;11.93;;;;;;;;;;759055;78;26254;-72
2022/04/06 04:34:42;;;;;;;32.60;22.37;;;;;;;;;;759321;78;26319;-71
2022/04/06 04:35:44;;;;;;;41.25;28.25;;;;;;;;;;762648;78;26267;-71
2022/04/06 04:36:47;;;;;;;41.00;28.35;;;;;;;;;;759551;78;26308;-70
2022/04/06 04:37:51;;;;;;;28.20;22.67;;;;;;;;;;763531;78;26289;-70
2022/04/06 04:38:55;;;;;;;28.75;19.50;;;;;;;;;;759874;78;26262;-71
2022/04/06 04:43:32;;;;;;;17.77;11.40;;;;;;;;;;760529;78;26223;-71
2022/04/06 04:44:35;;;;;;;18.57;11.70;;;;;;;;;;762025;78;26312;-73
2022/04/06 04:45:37;;;;;;;16.42;12.80;;;;;;;;;;760998;77;26258;-72
2022/04/06 04:46:40;;;;;;;14.23;12.10;;;;;;;;;;760617;78;26312;-71
2022/04/06 04:47:44;;;;;;;16.23;11.05;;;;;;;;;;760552;78;26280;-72
2022/04/06 04:48:47;;;;;;;15.65;11.78;;;;;;;;;;760423;78;26714;-71
2022/04/06 05:02:31;;;;;;;13.18;10.45;;;;;;;;;;759703;78;26221;-70
2022/04/06 05:03:36;;;;;;;16.90;10.75;;;;;;;;;;759684;78;26321;-70
2022/04/06 05:04:40;;;;;;;16.10;12.20;;;;;;;;;;760480;78;26263;-71
2022/04/06 05:05:44;;;;;;;21.82;13.20;;;;;;;;;;760196;78;26263;-69
2022/04/06 05:06:49;;;;;;;16.67;12.90;;;;;;;;;;759640;78;26282;-70
2022/04/06 05:07:52;;;;;;;16.90;14.07;;;;;;;;;;759708;78;26254;-72
2022/04/06 05:08:55;;;;;;;19.45;13.25;;;;;;;;;;759627;78;26262;-71
2022/04/06 05:12:01;;;;;;;18.98;14.83;;;;;;;;;;785716;75;26218;-70
2022/04/06 05:13:05;;;;;;;20.95;14.70;;;;;;;;;;787291;75;26386;-71
2022/04/06 05:14:09;;;;;;;22.17;15.30;;;;;;;;;;787332;75;26237;-71
2022/04/06 05:15:12;;;;;;;19.32;14.50;;;;;;;;;;787001;75;26220;-71
2022/04/06 05:16:16;;;;;;;23.52;14.93;;;;;;;;;;786814;75;26743;-71
2022/04/06 05:17:22;;;;;;;27.07;15.30;;;;;;;;;;786886;75;26281;-71
2022/04/06 05:18:26;;;;;;;22.50;15.88;;;;;;;;;;786892;75;26231;-72
2022/04/06 05:19:29;;;;;;;23.77;15.93;;;;;;;;;;786951;75;26693;-72
2022/04/06 05:20:32;;;;;;;20.60;15.63;;;;;;;;;;786879;75;26243;-70
2022/04/06 05:21:36;;;;;;;27.37;16.42;;;;;;;;;;786941;75;26244;-71
2022/04/06 05:22:39;;;;;;;23.12;16.25;;;;;;;;;;786898;75;26281;-71
2022/04/06 05:23:42;;;;;;;21.73;15.15;;;;;;;;;;786912;75;26233;-71
2022/04/06 05:24:45;;;;;;;21.40;15.75;;;;;;;;;;786801;75;26323;-70
2022/04/06 05:25:47;;;;;;;24.27;15.55;;;;;;;;;;786976;75;26313;-70
2022/04/06 05:26:50;;;;;;;21.37;15.60;;;;;;;;;;787271;75;26692;-70
2022/04/06 05:27:54;;;;;;;20.43;16.20;;;;;;;;;;787390;75;26231;-71
2022/04/06 05:28:56;;;;;;;22.22;16.00;;;;;;;;;;787131;75;26227;-70
2022/04/06 05:31:34;;;;;;;21.57;16.35;;;;;;;;;;787561;75;26293;-72
2022/04/06 05:32:37;;;;;;;24.72;18.17;;;;;;;;;;787468;75;26223;-72
2022/04/06 05:33:41;;;;;;;28.67;23.92;;;;;;;;;;786851;75;26733;-73
2022/04/06 05:34:44;;;;;;;28.52;23.27;;;;;;;;;;777957;76;26294;-72
2022/04/06 05:35:46;;;;;;;29.25;22.93;;;;;;;;;;778149;76;26252;-73
2022/04/06 05:36:52;;;;;;;29.07;19.52;;;;;;;;;;777980;76;26693;-73
2022/04/06 05:37:58;;;;;;;23.02;18.15;;;;;;;;;;777781;76;26718;-73
2022/04/06 05:39:03;;;;;;;21.73;17.40;;;;;;;;;;777973;76;26252;-73
2022/04/06 05:42:24;;;;;;;22.30;16.30;;;;;;;;;;738292;80;26666;-72
2022/04/06 05:43:27;;;;;;;23.05;16.52;;;;;;;;;;736748;80;26290;-72
2022/04/06 05:44:31;;;;;;;26.68;18.55;;;;;;;;;;736600;80;26285;-72
2022/04/06 05:45:36;;;;;;;23.42;18.67;;;;;;;;;;736602;80;26363;-73
2022/04/06 05:46:40;;;;;;;25.15;19.00;;;;;;;;;;736522;80;26290;-71
2022/04/06 05:47:44;;;;;;;27.13;18.77;;;;;;;;;;736565;80;26274;-74
2022/04/06 05:48:50;;;;;;;25.62;19.48;;;;;;;;;;737894;80;26274;-71
2022/04/06 05:52:11;;;;;;;23.25;17.82;;;;;;;;;;737394;80;26214;-73
2022/04/06 05:53:17;;;;;;;21.33;18.60;;;;;;;;;;761963;78;26274;-73
2022/04/06 05:54:23;;;;;;;20.45;18.05;;;;;;;;;;773157;77;26700;-73
2022/04/06 05:55:26;;;;;;;22.30;19.35;;;;;;;;;;773169;77;26705;-72
2022/04/06 05:56:29;;;;;;;22.50;19.25;;;;;;;;;;773210;77;26294;-72
2022/04/06 05:57:32;;;;;;;26.95;19.62;;;;;;;;;;773520;77;26301;-75
2022/04/06 05:58:37;;;;;;;21.25;18.80;;;;;;;;;;773690;76;26243;-73
2022/04/06 06:01:26;;;;;;;23.42;17.98;;;;;;;;;;750274;79;26286;-73
2022/04/06 06:02:30;;;;;;;22.85;18.12;;;;;;;;;;763220;77;26310;-73
2022/04/06 06:03:32;;;;;;;23.20;19.57;;;;;;;;;;763376;77;26290;-73
2022/04/06 06:04:38;;;;;;;22.95;19.62;;;;;;;;;;763287;77;26248;-73
2022/04/06 06:05:43;;;;;;;20.90;18.60;;;;;;;;;;763279;77;26236;-73
2022/04/06 06:06:48;;;;;;;23.67;19.10;;;;;;;;;;762245;77;26686;-73
2022/04/06 06:07:52;;;;;;;24.15;18.65;;;;;;;;;;763271;77;26721;-72
2022/04/06 06:08:55;;;;;;;20.97;17.92;;;;;;;;;;763332;77;26326;-75
2022/04/06 06:12:21;;;;;;;16.25;14.10;;;;;;;;;;775020;76;26776;-72
2022/04/06 06:13:26;;;;;;;18.27;15.80;;;;;;;;;;775047;76;26240;-72
2022/04/06 06:14:32;;;;;;;19.55;15.28;;;;;;;;;;775028;76;26674;-73
2022/04/06 06:15:36;;;;;;;18.87;15.75;;;;;;;;;;775008;76;26237;-73
2022/04/06 06:16:39;;;;;;;20.65;17.40;;;;;;;;;;775048;76;26697;-73
2022/04/06 06:17:43;;;;;;;21.07;17.00;;;;;;;;;;775070;76;26232;-74
2022/04/06 06:18:46;;;;;;;23.00;17.00;;;;;;;;;;775009;76;26240;-72
2022/04/06 06:21:50;;;;;;;23.22;16.97;;;;;;;;;;770298;77;26262;-72
2022/04/06 06:22:57;;;;;;;18.75;15.93;;;;;;;;;;770810;77;26253;-73
2022/04/06 06:24:04;;;;;;;22.98;17.95;;;;;;;;;;770321;77;26708;-74
2022/04/06 06:25:05;;;;;;;20.17;18.00;;;;;;;;;;769752;76;26336;-72
2022/04/06 06:26:07;;;;;;;21.80;17.32;;;;;;;;;;769839;77;26258;-72
2022/04/06 06:27:14;;;;;;;22.60;14.90;;;;;;;;;;770098;77;26258;-75
2022/04/06 06:28:16;;;;;;;13.88;12.28;;;;;;;;;;770140;77;26369;-78
2022/04/06 06:37:15;;;;;;;17.75;14.63;;;;;;;;;;737515;79;26196;-72
2022/04/06 06:38:18;;;;;;;22.32;17.90;;;;;;;;;;737283;80;26746;-71
2022/04/06 06:43:06;;;;;;;16.12;11.80;;;;;;;;;;737388;80;26237;-73
2022/04/06 06:44:09;;;;;;;15.28;11.85;;;;;;;;;;750092;79;26328;-72
2022/04/06 06:45:12;;;;;;;16.85;12.30;;;;;;;;;;749175;78;26254;-70
2022/04/06 06:46:15;;;;;;;13.75;12.33;;;;;;;;;;735731;79;26338;-71
2022/04/06 06:47:18;;;;;;;14.45;10.88;;;;;;;;;;735646;80;26353;-72
2022/04/06 06:48:21;;;;;;;16.10;11.78;;;;;;;;;;735673;80;26266;-71
2022/04/06 06:51:34;;;;;;;15.95;13.10;;;;;;;;;;773017;76;26741;-72
2022/04/06 06:52:37;;;;;;;18.70;14.60;;;;;;;;;;786219;75;26701;-72
2022/04/06 06:53:42;;;;;;;14.93;12.85;;;;;;;;;;784966;75;26332;-71
2022/04/06 06:54:45;;;;;;;16.73;14.10;;;;;;;;;;786015;75;26299;-71
2022/04/06 06:55:47;;;;;;;16.77;14.03;;;;;;;;;;786017;75;26395;-70
2022/04/06 06:56:50;;;;;;;15.80;14.20;;;;;;;;;;786023;75;26714;-73
2022/04/06 06:57:53;;;;;;;18.40;14.78;;;;;;;;;;786053;75;26241;-75
2022/04/06 07:02:50;;;;;;;15.90;13.50;;;;;;;;;;747007;79;26202;-75
2022/04/06 07:03:53;;;;;;;16.32;14.65;;;;;;;;;;746928;79;26340;-72
2022/04/06 07:04:56;;;;;;;15.43;13.85;;;;;;;;;;746788;79;26282;-74
2022/04/06 07:05:59;;;;;;;18.87;14.75;;;;;;;;;;746749;79;26744;-75
2022/04/06 07:07:02;;;;;;;20.20;14.60;;;;;;;;;;746710;79;26277;-74
2022/04/06 07:08:05;;;;;;;19.35;15.90;;;;;;;;;;746733;79;26360;-75
2022/04/06 07:13:01;;;;;;;21.48;16.80;;;;;;;;;;748609;79;26367;-73
2022/04/06 07:14:04;;;;;;;18.12;16.23;;;;;;;;;;763111;77;26317;-76
2022/04/06 07:15:08;;;;;;;18.57;16.15;;;;;;;;;;763095;78;26346;-73
2022/04/06 07:16:11;;;;;;;19.27;15.63;;;;;;;;;;762793;78;26316;-74
2022/04/06 07:17:17;;;;;;;19.23;14.40;;;;;;;;;;762947;78;26259;-76
2022/04/06 07:18:21;;;;;;;17.50;14.55;;;;;;;;;;762752;78;26773;-75
2022/04/06 07:21:22;;;;;;;16.45;14.15;;;;;;;;;;790091;75;26214;-73
2022/04/06 07:22:25;;;;;;;16.27;14.68;;;;;;;;;;790133;75;26202;-73
2022/04/06 07:23:28;;;;;;;16.35;14.07;;;;;;;;;;789921;75;26284;-72
2022/04/06 07:24:31;;;;;;;18.27;14.47;;;;;;;;;;789934;75;26296;-74
2022/04/06 07:25:34;;;;;;;16.30;14.60;;;;;;;;;;789918;75;26233;-74
2022/04/06 07:30:37;;;;;;;16.73;12.33;;;;;;;;;;808179;73;26170;-72
2022/04/06 07:31:40;;;;;;;14.07;12.23;;;;;;;;;;775060;76;26245;-72
2022/04/06 07:32:43;;;;;;;13.43;12.00;;;;;;;;;;779652;76;26567;-73
2022/04/06 07:33:46;;;;;;;13.50;12.13;;;;;;;;;;779595;76;26288;-76
2022/04/06 07:34:49;;;;;;;14.40;12.13;;;;;;;;;;774573;76;26726;-72
2022/04/06 07:35:52;;;;;;;14.75;13.22;;;;;;;;;;778662;76;26245;-74
2022/04/06 07:36:55;;;;;;;13.70;12.20;;;;;;;;;;778349;76;26240;-73
2022/04/06 07:37:59;;;;;;;13.88;12.33;;;;;;;;;;773815;76;26684;-73
2022/04/06 07:42:31;;;;;;;13.48;12.07;;;;;;;;;;792882;74;26356;-73
2022/04/06 07:43:34;;;;;;;14.30;12.60;;;;;;;;;;792451;75;26703;-75
2022/04/06 07:44:37;;;;;;;14.53;12.53;;;;;;;;;;788970;75;26945;-76
2022/04/06 07:45:40;;;;;;;13.77;12.33;;;;;;;;;;789058;75;26558;-72
2022/04/06 07:46:43;;;;;;;15.90;12.67;;;;;;;;;;789180;75;26320;-75
2022/04/06 07:47:47;;;;;;;13.60;12.10;;;;;;;;;;789069;75;26600;-73
2022/04/06 07:50:44;;;;;;;13.27;11.90;;;;;;;;;;772311;75;26612;-72
2022/04/06 07:51:50;;;;;;;13.97;12.57;;;;;;;;;;772477;77;26482;-72
2022/04/06 07:52:53;;;;;;;12.60;11.40;;;;;;;;;;772457;77;26505;-72
2022/04/06 07:53:57;;;;;;;13.80;12.20;;;;;;;;;;772179;77;26424;-73
2022/04/06 07:55:00;;;;;;;14.90;12.30;;;;;;;;;;772149;76;26441;-73
2022/04/06 07:56:03;;;;;;;13.67;12.23;;;;;;;;;;772100;77;26488;-73
2022/04/06 07:57:06;;;;;;;15.80;14.10;;;;;;;;;;771906;77;26407;-72
2022/04/06 07:58:09;;;;;;;22.10;18.30;;;;;;;;;;772175;76;26552;-72
2022/04/06 08:01:27;;;;;;;17.17;13.27;;;;;;;;;;772529;77;26293;-73
2022/04/06 08:02:31;;;;;;;16.50;12.83;;;;;;;;;;761157;78;26370;-73
2022/04/06 08:03:35;;;;;;;14.00;12.07;;;;;;;;;;761009;78;26573;-73
2022/04/06 08:04:38;;;;;;;12.87;11.50;;;;;;;;;;761231;78;26603;-71
2022/04/06 08:05:41;;;;;;;12.80;11.60;;;;;;;;;;761086;78;26502;-72
2022/04/06 08:06:44;;;;;;;17.70;13.17;;;;;;;;;;761069;78;26505;-73
2022/04/06 08:07:50;;;;;;;16.27;14.57;;;;;;;;;;761119;77;26447;-75
2022/04/06 08:10:55;;;;;;;13.53;12.13;;;;;;;;;;761871;78;26571;-74
2022/04/06 08:11:57;;;;;;;16.37;13.07;;;;;;;;;;793001;75;26485;-74
2022/04/06 08:13:00;;;;;;;15.77;12.30;;;;;;;;;;793491;75;26462;-73
2022/04/06 08:14:04;;;;;;;14.03;12.67;;;;;;;;;;793544;75;26483;-72
2022/04/06 08:15:07;;;;;;;12.90;11.20;;;;;;;;;;793596;75;26886;-71
2022/04/06 08:16:10;;;;;;;13.70;11.73;;;;;;;;;;793481;75;26914;-72
2022/04/06 08:17:14;;;;;;;13.27;11.97;;;;;;;;;;793618;75;26480;-72
2022/04/06 08:18:17;;;;;;;14.07;11.80;;;;;;;;;;793592;75;26357;-71
2022/04/06 08:19:39;;;;;;;12.80;11.50;;;;;;;;;;793670;75;26894;-71
2022/04/06 08:20:42;;;;;;;13.80;11.80;;;;;;;;;;807516;73;26471;-74
2022/04/06 08:21:47;;;;;;;13.00;11.60;;;;;;;;;;807321;73;26525;-72
2022/04/06 08:22:50;;;;;;;12.93;11.63;;;;;;;;;;807078;73;26238;-73
2022/04/06 08:23:54;;;;;;;12.83;11.63;;;;;;;;;;807376;73;26526;-72
2022/04/06 08:25:14;;;;;;;16.20;12.30;;;;;;;;;;807698;73;26855;-75
2022/04/06 08:26:18;;;;;;;15.30;11.73;;;;;;;;;;804593;73;26215;-75
2022/04/06 08:27:21;;;;;;;13.93;12.40;;;;;;;;;;807571;73;26254;-73
2022/04/06 08:30:42;;;;;;;14.20;11.70;;;;;;;;;;808604;73;26439;-72
2022/04/06 08:31:45;;;;;;;14.43;11.67;;;;;;;;;;807305;73;26731;-73
2022/04/06 08:32:49;;;;;;;11.90;10.70;;;;;;;;;;806912;73;26452;-74
2022/04/06 08:33:52;;;;;;;16.37;10.77;;;;;;;;;;806871;73;26352;-74
2022/04/06 08:34:55;;;;;;;13.77;11.00;;;;;;;;;;806985;73;26991;-75
2022/04/06 08:35:57;;;;;;;12.60;10.20;;;;;;;;;;806889;73;26402;-73
2022/04/06 08:37:02;;;;;;;13.67;11.53;;;;;;;;;;806868;73;26230;-72
2022/04/06 08:38:05;;;;;;;13.27;10.97;;;;;;;;;;806867;73;26924;-74
2022/04/06 08:40:49;;;;;;;13.50;10.87;;;;;;;;;;789403;75;26301;-72
2022/04/06 08:43:41;;;;;;;11.60;10.50;;;;;;;;;;755635;78;26907;-73
2022/04/06 08:44:45;;;;;;;12.47;11.17;;;;;;;;;;741814;77;26367;-72
2022/04/06 08:45:47;;;;;;;11.97;10.70;;;;;;;;;;793802;75;26863;-71
2022/04/06 08:46:52;;;;;;;11.63;10.00;;;;;;;;;;793601;75;26894;-72
2022/04/06 08:47:57;;;;;;;11.63;10.43;;;;;;;;;;794015;74;26292;-71
2022/04/06 08:51:18;;;;;;;12.03;9.40;;;;;;;;;;794469;75;26435;-72
2022/04/06 08:52:22;;;;;;;12.20;10.80;;;;;;;;;;775665;76;26471;-72
2022/04/06 08:53:26;;;;;;;10.30;9.30;;;;;;;;;;774451;76;26824;-72
2022/04/06 08:54:30;;;;;;;13.23;10.47;;;;;;;;;;779343;76;26518;-73
2022/04/06 08:55:33;;;;;;;11.63;10.40;;;;;;;;;;775498;76;26994;-73
2022/04/06 08:56:37;;;;;;;10.63;9.73;;;;;;;;;;779218;76;26530;-72
2022/04/06 08:57:42;;;;;;;11.30;10.20;;;;;;;;;;778694;76;26892;-73
2022/04/06 08:58:45;;;;;;;11.57;9.57;;;;;;;;;;775541;76;26936;-74
2022/04/06 08:59:49;;;;;;;11.20;10.07;;;;;;;;;;775985;76;26913;-72
2022/04/06 09:00:51;;;;;;;11.10;9.90;;;;;;;;;;779707;76;26465;-72
2022/04/06 09:01:54;;;;;;;11.50;10.30;;;;;;;;;;776194;76;26537;-71
2022/04/06 09:02:57;;;;;;;13.27;11.97;;;;;;;;;;779396;76;26941;-73
2022/04/06 09:04:00;;;;;;;14.60;11.90;;;;;;;;;;775180;76;26657;-71
2022/04/06 09:05:05;;;;;;;12.40;10.17;;;;;;;;;;774358;76;26580;-72
2022/04/06 09:06:09;;;;;;;12.80;10.00;;;;;;;;;;779205;76;26646;-73
2022/04/06 09:07:12;;;;;;;11.87;9.07;;;;;;;;;;775778;76;26653;-73
2022/04/06 09:08:16;;;;;;;10.73;9.70;;;;;;;;;;771970;76;27123;-72
2022/04/06 09:09:28;;;;;;;11.67;9.13;;;;;;;;;;775802;76;26694;-73
2022/04/06 09:10:29;;;;;;;9.83;8.93;;;;;;;;;;774821;76;26707;-74
2022/04/06 09:11:33;;;;;;;10.17;9.17;;;;;;;;;;775794;76;26751;-71
2022/04/06 09:12:36;;;;;;;10.20;9.20;;;;;;;;;;774347;76;26764;-72
2022/04/06 09:13:39;;;;;;;9.97;8.93;;;;;;;;;;775720;76;26657;-71
2022/04/06 09:14:42;;;;;;;9.53;8.73;;;;;;;;;;775783;76;27155;-74
2022/04/06 09:15:45;;;;;;;10.10;9.20;;;;;;;;;;775973;76;26848;-77
2022/04/06 09:16:49;;;;;;;9.67;8.80;;;;;;;;;;775844;76;26754;-76
2022/04/06 09:17:53;;;;;;;11.33;10.33;;;;;;;;;;773639;76;27242;-76
2022/04/06 09:18:57;;;;;;;13.17;10.57;;;;;;;;;;772087;76;26950;-75
2022/04/06 09:19:59;;;;;;;13.07;11.10;;;;;;;;;;779357;76;27217;-73
2022/04/06 09:21:03;;;;;;;11.70;10.50;;;;;;;;;;775848;76;26984;-76
2022/04/06 09:22:08;;;;;;;12.20;10.23;;;;;;;;;;779468;76;27007;-74
2022/04/06 09:23:12;;;;;;;10.33;9.30;;;;;;;;;;778847;76;26937;-75
2022/04/06 09:24:15;;;;;;;9.33;8.43;;;;;;;;;;775802;76;26928;-75
2022/04/06 09:25:20;;;;;;;14.00;8.33;;;;;;;;;;775717;76;27376;-73
2022/04/06 09:26:23;;;;;;;10.10;8.80;;;;;;;;;;775829;76;26991;-75
2022/04/06 09:27:32;;;;;;;8.03;7.40;;;;;;;;;;775970;76;26927;-73
2022/04/06 09:30:38;;;;;;;8.17;7.37;;;;;;;;;;777280;76;26989;-75
2022/04/06 09:31:39;;;;;;;8.97;8.00;;;;;;;;;;760550;77;27450;-74